Mellieha, Malta
Current Conditions -  °F | °C
As of 5:15 AM on Wednesday 22 Oct 2014 (Local Time) from LMML Reporting Station
Scattered Clouds Scattered Clouds  
Wind Chill: 72°   Ceiling: Unl
Heat Index: 72°   Visibility: 6mi
Dew Point: 66°   Wind: 10mph
Humidity: 83%   Direction: 300°WNW
Pressure: 29.85"   Gusts: NA
Location:  35.96°N, 14.36°E
Report Text: LMML 220315Z 30009KT 9999 SCT022 22/19 Q1011 NOSIG
Loading
Personal Weather Stations






























Interactive Weather Map
Tropical Storm Tracking
New forecast layout! Learn more

10-Day Weather Forecast

Advertisements
Track Severe Weather on mobile